sensor_id;sensor_type;location;lat;lon;timestamp;temperature;humidity
9881;DHT22;4979;51.014;6.678;2022-12-10T00:01:30;1.70;99.90
9881;DHT22;4979;51.014;6.678;2022-12-10T00:03:56;1.80;99.90
9881;DHT22;4979;51.014;6.678;2022-12-10T00:06:24;1.70;99.90
9881;DHT22;4979;51.014;6.678;2022-12-10T00:08:51;1.70;99.90
9881;DHT22;4979;51.014;6.678;2022-12-10T00:11:19;1.70;99.90
9881;DHT22;4979;51.014;6.678;2022-12-10T00:13:46;1.70;99.90
9881;DHT22;4979;51.014;6.678;2022-12-10T00:16:14;1.60;99.90
9881;DHT22;4979;51.014;6.678;2022-12-10T00:18:41;1.60;99.90
9881;DHT22;4979;51.014;6.678;2022-12-10T00:21:09;1.70;99.90
9881;DHT22;4979;51.014;6.678;2022-12-10T00:23:35;1.60;99.90
9881;DHT22;4979;51.014;6.678;2022-12-10T00:26:04;1.60;99.90
9881;DHT22;4979;51.014;6.678;2022-12-10T00:28:30;1.60;99.90
9881;DHT22;4979;51.014;6.678;2022-12-10T00:31:05;1.60;99.90
9881;DHT22;4979;51.014;6.678;2022-12-10T00:33:31;1.50;99.90
9881;DHT22;4979;51.014;6.678;2022-12-10T00:36:03;1.50;99.90
9881;DHT22;4979;51.014;6.678;2022-12-10T00:38:29;1.40;99.90
9881;DHT22;4979;51.014;6.678;2022-12-10T00:40:54;1.40;99.90
9881;DHT22;4979;51.014;6.678;2022-12-10T00:43:20;1.40;99.90
9881;DHT22;4979;51.014;6.678;2022-12-10T00:45:45;1.50;99.90
9881;DHT22;4979;51.014;6.678;2022-12-10T00:48:11;1.40;99.90
9881;DHT22;4979;51.014;6.678;2022-12-10T00:50:37;1.40;99.90
9881;DHT22;4979;51.014;6.678;2022-12-10T00:53:02;1.40;99.90
9881;DHT22;4979;51.014;6.678;2022-12-10T00:55:28;1.40;99.90
9881;DHT22;4979;51.014;6.678;2022-12-10T00:57:53;1.40;99.90
9881;DHT22;4979;51.014;6.678;2022-12-10T01:00:19;1.30;99.90
9881;DHT22;4979;51.014;6.678;2022-12-10T01:02:44;1.20;99.90
9881;DHT22;4979;51.014;6.678;2022-12-10T01:05:10;1.20;99.90
9881;DHT22;4979;51.014;6.678;2022-12-10T01:07:35;1.10;99.90
9881;DHT22;4979;51.014;6.678;2022-12-10T01:10:01;1.10;99.90
9881;DHT22;4979;51.014;6.678;2022-12-10T01:12:27;1.20;99.90
9881;DHT22;4979;51.014;6.678;2022-12-10T01:14:53;1.20;99.90
9881;DHT22;4979;51.014;6.678;2022-12-10T01:17:19;1.30;99.90
9881;DHT22;4979;51.014;6.678;2022-12-10T01:19:46;1.30;99.90
9881;DHT22;4979;51.014;6.678;2022-12-10T01:22:11;1.30;99.90
9881;DHT22;4979;51.014;6.678;2022-12-10T01:24:37;1.20;99.90
9881;DHT22;4979;51.014;6.678;2022-12-10T01:27:03;1.30;99.90
9881;DHT22;4979;51.014;6.678;2022-12-10T01:29:28;1.20;99.90
9881;DHT22;4979;51.014;6.678;2022-12-10T01:31:55;1.20;99.90
9881;DHT22;4979;51.014;6.678;2022-12-10T01:34:22;1.20;99.90
9881;DHT22;4979;51.014;6.678;2022-12-10T01:36:50;1.20;99.90
9881;DHT22;4979;51.014;6.678;2022-12-10T01:39:18;1.20;99.90
9881;DHT22;4979;51.014;6.678;2022-12-10T01:41:47;1.20;99.90
9881;DHT22;4979;51.014;6.678;2022-12-10T01:46:41;1.20;99.90
9881;DHT22;4979;51.014;6.678;2022-12-10T01:49:12;1.10;99.90
9881;DHT22;4979;51.014;6.678;2022-12-10T01:51:40;1.10;99.90
9881;DHT22;4979;51.014;6.678;2022-12-10T01:54:09;1.10;99.90
9881;DHT22;4979;51.014;6.678;2022-12-10T01:56:38;1.10;99.90
9881;DHT22;4979;51.014;6.678;2022-12-10T01:59:06;1.10;99.90
9881;DHT22;4979;51.014;6.678;2022-12-10T02:01:53;1.00;99.90
9881;DHT22;4979;51.014;6.678;2022-12-10T02:04:41;1.00;99.90
9881;DHT22;4979;51.014;6.678;2022-12-10T02:07:17;1.00;99.90
9881;DHT22;4979;51.014;6.678;2022-12-10T02:15:08;0.90;99.90
9881;DHT22;4979;51.014;6.678;2022-12-10T02:20:47;0.90;99.90
9881;DHT22;4979;51.014;6.678;2022-12-10T02:23:38;1.00;99.90
9881;DHT22;4979;51.014;6.678;2022-12-10T02:31:09;1.10;99.90
9881;DHT22;4979;51.014;6.678;2022-12-10T02:33:39;1.10;99.90
9881;DHT22;4979;51.014;6.678;2022-12-10T02:36:08;0.90;99.90
9881;DHT22;4979;51.014;6.678;2022-12-10T02:38:36;0.90;99.90
9881;DHT22;4979;51.014;6.678;2022-12-10T02:41:28;0.90;99.90
9881;DHT22;4979;51.014;6.678;2022-12-10T02:43:56;1.00;99.90
9881;DHT22;4979;51.014;6.678;2022-12-10T02:46:24;1.10;99.90
9881;DHT22;4979;51.014;6.678;2022-12-10T02:48:54;1.10;99.90
9881;DHT22;4979;51.014;6.678;2022-12-10T02:51:20;1.10;99.90
9881;DHT22;4979;51.014;6.678;2022-12-10T02:53:46;1.10;99.90
9881;DHT22;4979;51.014;6.678;2022-12-10T02:56:34;1.00;99.90
9881;DHT22;4979;51.014;6.678;2022-12-10T02:59:26;1.20;99.90
9881;DHT22;4979;51.014;6.678;2022-12-10T03:02:17;1.20;99.90
9881;DHT22;4979;51.014;6.678;2022-12-10T03:04:53;1.20;99.90
9881;DHT22;4979;51.014;6.678;2022-12-10T03:07:39;1.30;99.90
9881;DHT22;4979;51.014;6.678;2022-12-10T03:10:33;1.20;99.90
9881;DHT22;4979;51.014;6.678;2022-12-10T03:13:03;1.20;99.90
9881;DHT22;4979;51.014;6.678;2022-12-10T03:15:34;1.20;99.90
9881;DHT22;4979;51.014;6.678;2022-12-10T03:18:02;1.20;99.90
9881;DHT22;4979;51.014;6.678;2022-12-10T03:20:31;1.10;99.90
9881;DHT22;4979;51.014;6.678;2022-12-10T03:22:57;1.20;99.90
9881;DHT22;4979;51.014;6.678;2022-12-10T03:25:25;1.30;99.90
9881;DHT22;4979;51.014;6.678;2022-12-10T03:27:54;1.30;99.90
9881;DHT22;4979;51.014;6.678;2022-12-10T03:30:20;1.20;99.90
9881;DHT22;4979;51.014;6.678;2022-12-10T03:32:46;1.30;99.90
9881;DHT22;4979;51.014;6.678;2022-12-10T03:35:13;1.30;99.90
9881;DHT22;4979;51.014;6.678;2022-12-10T03:37:39;1.30;99.90
9881;DHT22;4979;51.014;6.678;2022-12-10T03:40:07;1.30;99.90
9881;DHT22;4979;51.014;6.678;2022-12-10T03:42:36;1.20;99.90
9881;DHT22;4979;51.014;6.678;2022-12-10T03:45:02;1.20;99.90
9881;DHT22;4979;51.014;6.678;2022-12-10T03:47:27;1.10;99.90
9881;DHT22;4979;51.014;6.678;2022-12-10T03:49:53;1.00;99.90
9881;DHT22;4979;51.014;6.678;2022-12-10T03:52:19;0.90;99.90
9881;DHT22;4979;51.014;6.678;2022-12-10T03:54:44;0.90;99.90
9881;DHT22;4979;51.014;6.678;2022-12-10T03:57:10;0.90;99.90
9881;DHT22;4979;51.014;6.678;2022-12-10T03:59:35;0.80;99.90
9881;DHT22;4979;51.014;6.678;2022-12-10T04:02:01;0.80;99.90
9881;DHT22;4979;51.014;6.678;2022-12-10T04:04:26;0.90;99.90
9881;DHT22;4979;51.014;6.678;2022-12-10T04:06:52;0.80;99.90
9881;DHT22;4979;51.014;6.678;2022-12-10T04:09:18;0.80;99.90
9881;DHT22;4979;51.014;6.678;2022-12-10T04:11:43;0.70;99.90
9881;DHT22;4979;51.014;6.678;2022-12-10T04:14:10;0.80;99.90
9881;DHT22;4979;51.014;6.678;2022-12-10T04:16:54;0.70;99.90
9881;DHT22;4979;51.014;6.678;2022-12-10T04:19:19;0.70;99.90
9881;DHT22;4979;51.014;6.678;2022-12-10T04:21:46;0.70;99.90
9881;DHT22;4979;51.014;6.678;2022-12-10T04:24:32;0.70;99.90
9881;DHT22;4979;51.014;6.678;2022-12-10T04:29:49;0.60;99.90
9881;DHT22;4979;51.014;6.678;2022-12-10T04:32:15;0.50;99.90
9881;DHT22;4979;51.014;6.678;2022-12-10T04:34:41;0.40;99.90
9881;DHT22;4979;51.014;6.678;2022-12-10T04:37:07;0.60;99.90
9881;DHT22;4979;51.014;6.678;2022-12-10T04:39:33;0.50;99.90
9881;DHT22;4979;51.014;6.678;2022-12-10T04:42:01;0.50;99.90
9881;DHT22;4979;51.014;6.678;2022-12-10T04:44:27;0.50;99.90
9881;DHT22;4979;51.014;6.678;2022-12-10T04:46:52;0.60;99.90
9881;DHT22;4979;51.014;6.678;2022-12-10T04:49:18;2.20;99.90
9881;DHT22;4979;51.014;6.678;2022-12-10T04:51:44;0.50;99.90
9881;DHT22;4979;51.014;6.678;2022-12-10T04:54:10;0.50;99.90
9881;DHT22;4979;51.014;6.678;2022-12-10T04:56:36;0.50;99.90
9881;DHT22;4979;51.014;6.678;2022-12-10T04:59:03;0.60;99.90
9881;DHT22;4979;51.014;6.678;2022-12-10T05:01:30;0.50;99.90
9881;DHT22;4979;51.014;6.678;2022-12-10T05:03:59;0.60;99.90
9881;DHT22;4979;51.014;6.678;2022-12-10T05:06:25;0.60;99.90
9881;DHT22;4979;51.014;6.678;2022-12-10T05:08:50;0.60;99.90
9881;DHT22;4979;51.014;6.678;2022-12-10T05:11:21;0.50;99.90
9881;DHT22;4979;51.014;6.678;2022-12-10T05:13:48;0.40;99.90
9881;DHT22;4979;51.014;6.678;2022-12-10T05:16:17;0.30;99.90
9881;DHT22;4979;51.014;6.678;2022-12-10T05:18:43;0.40;99.90
9881;DHT22;4979;51.014;6.678;2022-12-10T05:21:19;0.40;99.90
9881;DHT22;4979;51.014;6.678;2022-12-10T05:23:48;0.50;99.90
9881;DHT22;4979;51.014;6.678;2022-12-10T05:26:17;0.50;99.90
9881;DHT22;4979;51.014;6.678;2022-12-10T05:31:32;0.50;99.90
9881;DHT22;4979;51.014;6.678;2022-12-10T05:33:58;0.50;99.90
9881;DHT22;4979;51.014;6.678;2022-12-10T05:36:26;0.60;99.90
9881;DHT22;4979;51.014;6.678;2022-12-10T05:38:54;0.60;99.90
9881;DHT22;4979;51.014;6.678;2022-12-10T05:41:23;0.60;99.90
9881;DHT22;4979;51.014;6.678;2022-12-10T05:43:50;0.60;99.90
9881;DHT22;4979;51.014;6.678;2022-12-10T05:46:20;0.60;99.90
9881;DHT22;4979;51.014;6.678;2022-12-10T05:48:50;0.50;99.90
9881;DHT22;4979;51.014;6.678;2022-12-10T05:51:18;0.40;99.90
9881;DHT22;4979;51.014;6.678;2022-12-10T05:53:43;0.50;99.90
9881;DHT22;4979;51.014;6.678;2022-12-10T05:56:11;0.50;99.90
9881;DHT22;4979;51.014;6.678;2022-12-10T05:58:39;0.50;99.90
9881;DHT22;4979;51.014;6.678;2022-12-10T06:01:17;0.60;99.90
9881;DHT22;4979;51.014;6.678;2022-12-10T06:03:43;0.50;99.90
9881;DHT22;4979;51.014;6.678;2022-12-10T06:06:09;0.60;99.90
9881;DHT22;4979;51.014;6.678;2022-12-10T06:08:35;0.60;99.90
9881;DHT22;4979;51.014;6.678;2022-12-10T06:11:06;0.50;99.90
9881;DHT22;4979;51.014;6.678;2022-12-10T06:13:32;0.60;99.90
9881;DHT22;4979;51.014;6.678;2022-12-10T06:15:58;0.50;99.90
9881;DHT22;4979;51.014;6.678;2022-12-10T06:18:24;0.60;99.90
9881;DHT22;4979;51.014;6.678;2022-12-10T06:20:50;0.60;99.90
9881;DHT22;4979;51.014;6.678;2022-12-10T06:23:16;0.60;99.90
9881;DHT22;4979;51.014;6.678;2022-12-10T06:25:41;0.60;99.90
9881;DHT22;4979;51.014;6.678;2022-12-10T06:28:07;0.60;99.90
9881;DHT22;4979;51.014;6.678;2022-12-10T06:30:33;0.60;99.90
9881;DHT22;4979;51.014;6.678;2022-12-10T06:32:59;0.70;99.90
9881;DHT22;4979;51.014;6.678;2022-12-10T06:35:25;0.60;99.90
9881;DHT22;4979;51.014;6.678;2022-12-10T06:37:51;0.70;99.90
9881;DHT22;4979;51.014;6.678;2022-12-10T06:40:16;0.60;99.90
9881;DHT22;4979;51.014;6.678;2022-12-10T06:42:42;0.70;99.90
9881;DHT22;4979;51.014;6.678;2022-12-10T06:45:08;0.70;99.90
9881;DHT22;4979;51.014;6.678;2022-12-10T06:47:33;0.70;99.90
9881;DHT22;4979;51.014;6.678;2022-12-10T06:49:59;0.80;99.90
9881;DHT22;4979;51.014;6.678;2022-12-10T06:52:25;0.70;99.90
9881;DHT22;4979;51.014;6.678;2022-12-10T06:54:50;0.70;99.90
9881;DHT22;4979;51.014;6.678;2022-12-10T06:57:16;0.70;99.90
9881;DHT22;4979;51.014;6.678;2022-12-10T06:59:41;0.70;99.90
9881;DHT22;4979;51.014;6.678;2022-12-10T07:02:11;0.70;99.90
9881;DHT22;4979;51.014;6.678;2022-12-10T07:04:36;0.80;99.90
9881;DHT22;4979;51.014;6.678;2022-12-10T07:07:02;0.70;99.90
9881;DHT22;4979;51.014;6.678;2022-12-10T07:09:27;0.70;99.90
9881;DHT22;4979;51.014;6.678;2022-12-10T07:11:53;0.70;99.90
9881;DHT22;4979;51.014;6.678;2022-12-10T07:14:19;0.70;99.90
9881;DHT22;4979;51.014;6.678;2022-12-10T07:16:44;0.60;99.90
9881;DHT22;4979;51.014;6.678;2022-12-10T07:19:11;0.60;99.90
9881;DHT22;4979;51.014;6.678;2022-12-10T07:21:40;0.60;99.90
9881;DHT22;4979;51.014;6.678;2022-12-10T07:24:10;0.50;99.90
9881;DHT22;4979;51.014;6.678;2022-12-10T07:26:38;0.60;99.90
9881;DHT22;4979;51.014;6.678;2022-12-10T07:29:06;0.40;99.90
9881;DHT22;4979;51.014;6.678;2022-12-10T07:31:33;0.40;99.90
9881;DHT22;4979;51.014;6.678;2022-12-10T07:33:59;0.30;99.90
9881;DHT22;4979;51.014;6.678;2022-12-10T07:36:25;0.40;99.90
9881;DHT22;4979;51.014;6.678;2022-12-10T07:38:52;0.30;99.90
9881;DHT22;4979;51.014;6.678;2022-12-10T07:41:18;0.30;99.90
9881;DHT22;4979;51.014;6.678;2022-12-10T07:43:45;0.50;99.90
9881;DHT22;4979;51.014;6.678;2022-12-10T07:46:15;0.40;99.90
9881;DHT22;4979;51.014;6.678;2022-12-10T07:48:41;0.50;99.90
9881;DHT22;4979;51.014;6.678;2022-12-10T07:51:08;0.50;99.90
9881;DHT22;4979;51.014;6.678;2022-12-10T07:53:34;0.50;99.90
9881;DHT22;4979;51.014;6.678;2022-12-10T07:56:00;0.60;99.90
9881;DHT22;4979;51.014;6.678;2022-12-10T07:58:27;0.70;99.90
9881;DHT22;4979;51.014;6.678;2022-12-10T08:00:52;0.70;99.90
9881;DHT22;4979;51.014;6.678;2022-12-10T08:03:18;0.70;99.90
9881;DHT22;4979;51.014;6.678;2022-12-10T08:05:43;0.90;99.90
9881;DHT22;4979;51.014;6.678;2022-12-10T08:08:09;0.90;99.90
9881;DHT22;4979;51.014;6.678;2022-12-10T08:10:36;0.80;99.90
9881;DHT22;4979;51.014;6.678;2022-12-10T08:13:02;0.80;99.90
9881;DHT22;4979;51.014;6.678;2022-12-10T08:15:28;1.00;99.90
9881;DHT22;4979;51.014;6.678;2022-12-10T08:17:54;1.00;99.90
9881;DHT22;4979;51.014;6.678;2022-12-10T08:20:20;1.00;99.90
9881;DHT22;4979;51.014;6.678;2022-12-10T08:22:46;-0.60;99.90
9881;DHT22;4979;51.014;6.678;2022-12-10T08:25:11;1.00;99.90
9881;DHT22;4979;51.014;6.678;2022-12-10T08:27:37;1.10;99.90
9881;DHT22;4979;51.014;6.678;2022-12-10T08:30:03;1.00;99.90
9881;DHT22;4979;51.014;6.678;2022-12-10T08:32:29;1.10;99.90
9881;DHT22;4979;51.014;6.678;2022-12-10T08:34:55;1.10;99.90
9881;DHT22;4979;51.014;6.678;2022-12-10T08:37:20;1.10;99.90
9881;DHT22;4979;51.014;6.678;2022-12-10T08:39:46;1.10;99.90
9881;DHT22;4979;51.014;6.678;2022-12-10T08:42:12;1.00;99.90
9881;DHT22;4979;51.014;6.678;2022-12-10T08:44:37;1.00;99.90
9881;DHT22;4979;51.014;6.678;2022-12-10T08:47:03;1.00;99.90
9881;DHT22;4979;51.014;6.678;2022-12-10T08:49:28;1.10;99.90
9881;DHT22;4979;51.014;6.678;2022-12-10T08:51:54;1.00;99.90
9881;DHT22;4979;51.014;6.678;2022-12-10T08:54:20;1.20;99.90
9881;DHT22;4979;51.014;6.678;2022-12-10T08:56:45;1.20;99.90
9881;DHT22;4979;51.014;6.678;2022-12-10T08:59:11;1.30;99.90
9881;DHT22;4979;51.014;6.678;2022-12-10T09:01:36;1.30;99.90
9881;DHT22;4979;51.014;6.678;2022-12-10T09:04:03;1.30;99.90
9881;DHT22;4979;51.014;6.678;2022-12-10T09:06:29;1.30;99.90
9881;DHT22;4979;51.014;6.678;2022-12-10T09:08:55;1.40;99.90
9881;DHT22;4979;51.014;6.678;2022-12-10T09:11:32;1.40;99.90
9881;DHT22;4979;51.014;6.678;2022-12-10T09:13:58;1.30;99.90
9881;DHT22;4979;51.014;6.678;2022-12-10T09:16:32;1.30;99.90
9881;DHT22;4979;51.014;6.678;2022-12-10T09:18:58;1.50;99.90
9881;DHT22;4979;51.014;6.678;2022-12-10T09:21:24;1.60;99.90
9881;DHT22;4979;51.014;6.678;2022-12-10T09:23:51;1.60;99.90
9881;DHT22;4979;51.014;6.678;2022-12-10T09:26:17;1.70;99.90
9881;DHT22;4979;51.014;6.678;2022-12-10T09:28:43;1.60;99.90
9881;DHT22;4979;51.014;6.678;2022-12-10T09:31:10;1.60;99.90
9881;DHT22;4979;51.014;6.678;2022-12-10T09:33:37;1.60;99.90
9881;DHT22;4979;51.014;6.678;2022-12-10T09:36:07;1.60;99.90
9881;DHT22;4979;51.014;6.678;2022-12-10T09:38:38;1.70;99.90
9881;DHT22;4979;51.014;6.678;2022-12-10T09:41:05;1.70;99.90
9881;DHT22;4979;51.014;6.678;2022-12-10T09:44:05;1.80;99.90
9881;DHT22;4979;51.014;6.678;2022-12-10T09:46:50;1.80;99.90
9881;DHT22;4979;51.014;6.678;2022-12-10T09:52:12;1.90;99.90
9881;DHT22;4979;51.014;6.678;2022-12-10T09:54:52;1.80;99.90
9881;DHT22;4979;51.014;6.678;2022-12-10T09:57:30;1.80;99.90
9881;DHT22;4979;51.014;6.678;2022-12-10T10:00:00;1.80;99.90
9881;DHT22;4979;51.014;6.678;2022-12-10T10:05:11;1.80;99.90
9881;DHT22;4979;51.014;6.678;2022-12-10T10:07:47;1.80;99.90
9881;DHT22;4979;51.014;6.678;2022-12-10T10:10:24;2.00;99.90
9881;DHT22;4979;51.014;6.678;2022-12-10T10:12:53;1.90;99.90
9881;DHT22;4979;51.014;6.678;2022-12-10T10:15:26;1.80;99.90
9881;DHT22;4979;51.014;6.678;2022-12-10T10:17:56;1.80;99.90
9881;DHT22;4979;51.014;6.678;2022-12-10T10:20:23;1.90;99.90
9881;DHT22;4979;51.014;6.678;2022-12-10T10:22:49;1.80;99.90
9881;DHT22;4979;51.014;6.678;2022-12-10T10:25:18;1.80;99.90
9881;DHT22;4979;51.014;6.678;2022-12-10T10:27:44;2.00;99.90
9881;DHT22;4979;51.014;6.678;2022-12-10T10:30:17;2.20;99.90
9881;DHT22;4979;51.014;6.678;2022-12-10T10:32:46;2.30;99.90
9881;DHT22;4979;51.014;6.678;2022-12-10T10:35:32;2.20;99.90
9881;DHT22;4979;51.014;6.678;2022-12-10T10:38:07;2.10;99.90
9881;DHT22;4979;51.014;6.678;2022-12-10T10:40:40;2.10;99.90
9881;DHT22;4979;51.014;6.678;2022-12-10T10:43:14;2.20;99.90
9881;DHT22;4979;51.014;6.678;2022-12-10T10:45:49;2.20;99.90
9881;DHT22;4979;51.014;6.678;2022-12-10T10:48:17;2.20;99.90
9881;DHT22;4979;51.014;6.678;2022-12-10T10:50:46;2.30;99.90
9881;DHT22;4979;51.014;6.678;2022-12-10T10:53:22;2.20;99.90
9881;DHT22;4979;51.014;6.678;2022-12-10T10:55:48;2.60;99.90
9881;DHT22;4979;51.014;6.678;2022-12-10T10:58:19;2.40;99.90
9881;DHT22;4979;51.014;6.678;2022-12-10T11:00:57;2.40;99.90
9881;DHT22;4979;51.014;6.678;2022-12-10T11:03:24;2.20;99.90
9881;DHT22;4979;51.014;6.678;2022-12-10T11:05:49;2.20;99.90
9881;DHT22;4979;51.014;6.678;2022-12-10T11:08:19;2.30;99.90
9881;DHT22;4979;51.014;6.678;2022-12-10T11:10:52;2.40;99.90
9881;DHT22;4979;51.014;6.678;2022-12-10T11:13:25;4.40;99.90
9881;DHT22;4979;51.014;6.678;2022-12-10T11:16:01;2.50;99.90
9881;DHT22;4979;51.014;6.678;2022-12-10T11:18:42;2.50;99.90
9881;DHT22;4979;51.014;6.678;2022-12-10T11:21:18;2.30;99.90
9881;DHT22;4979;51.014;6.678;2022-12-10T11:23:54;2.30;99.90
9881;DHT22;4979;51.014;6.678;2022-12-10T11:34:51;2.40;99.90
9881;DHT22;4979;51.014;6.678;2022-12-10T11:37:34;2.30;99.90
9881;DHT22;4979;51.014;6.678;2022-12-10T11:43:15;2.50;99.90
9881;DHT22;4979;51.014;6.678;2022-12-10T11:46:05;2.50;99.90
9881;DHT22;4979;51.014;6.678;2022-12-10T11:51:54;2.50;99.90
9881;DHT22;4979;51.014;6.678;2022-12-10T11:57:23;2.60;99.90
9881;DHT22;4979;51.014;6.678;2022-12-10T12:06:10;2.50;99.90
9881;DHT22;4979;51.014;6.678;2022-12-10T12:12:00;2.30;99.90
9881;DHT22;4979;51.014;6.678;2022-12-10T12:14:36;2.30;99.90
9881;DHT22;4979;51.014;6.678;2022-12-10T12:17:24;2.20;99.90
9881;DHT22;4979;51.014;6.678;2022-12-10T12:20:02;2.40;99.90
9881;DHT22;4979;51.014;6.678;2022-12-10T12:22:35;2.90;99.90
9881;DHT22;4979;51.014;6.678;2022-12-10T12:25:16;2.40;99.90
9881;DHT22;4979;51.014;6.678;2022-12-10T12:27:47;2.50;99.90
9881;DHT22;4979;51.014;6.678;2022-12-10T12:30:20;2.50;99.90
9881;DHT22;4979;51.014;6.678;2022-12-10T12:35:43;2.60;99.90
9881;DHT22;4979;51.014;6.678;2022-12-10T12:38:32;2.70;99.90
9881;DHT22;4979;51.014;6.678;2022-12-10T12:41:17;2.70;99.90
9881;DHT22;4979;51.014;6.678;2022-12-10T12:46:45;2.60;99.90
9881;DHT22;4979;51.014;6.678;2022-12-10T12:49:22;2.50;99.90
9881;DHT22;4979;51.014;6.678;2022-12-10T12:54:49;2.60;99.90
9881;DHT22;4979;51.014;6.678;2022-12-10T12:57:36;2.70;99.90
9881;DHT22;4979;51.014;6.678;2022-12-10T13:00:09;2.70;99.90
9881;DHT22;4979;51.014;6.678;2022-12-10T13:03:00;2.70;99.90
9881;DHT22;4979;51.014;6.678;2022-12-10T13:05:33;2.70;99.90
9881;DHT22;4979;51.014;6.678;2022-12-10T13:14:04;2.60;99.90
9881;DHT22;4979;51.014;6.678;2022-12-10T13:22:08;2.90;99.90
9881;DHT22;4979;51.014;6.678;2022-12-10T13:27:18;3.10;99.90
9881;DHT22;4979;51.014;6.678;2022-12-10T13:30:03;3.00;99.90
9881;DHT22;4979;51.014;6.678;2022-12-10T13:37:55;3.00;99.90
9881;DHT22;4979;51.014;6.678;2022-12-10T13:40:39;3.00;99.90
9881;DHT22;4979;51.014;6.678;2022-12-10T13:43:37;2.90;99.90
9881;DHT22;4979;51.014;6.678;2022-12-10T13:48:51;2.80;99.90
9881;DHT22;4979;51.014;6.678;2022-12-10T13:51:21;2.70;99.90
9881;DHT22;4979;51.014;6.678;2022-12-10T13:56:45;2.60;99.90
9881;DHT22;4979;51.014;6.678;2022-12-10T14:02:17;2.60;99.90
9881;DHT22;4979;51.014;6.678;2022-12-10T14:07:31;2.60;99.90
9881;DHT22;4979;51.014;6.678;2022-12-10T14:09:58;2.60;99.90
9881;DHT22;4979;51.014;6.678;2022-12-10T14:15:01;2.60;99.90
9881;DHT22;4979;51.014;6.678;2022-12-10T14:17:34;2.60;99.90
9881;DHT22;4979;51.014;6.678;2022-12-10T14:20:05;2.60;99.90
9881;DHT22;4979;51.014;6.678;2022-12-10T14:22:38;2.50;99.90
9881;DHT22;4979;51.014;6.678;2022-12-10T14:25:11;2.50;99.90
9881;DHT22;4979;51.014;6.678;2022-12-10T14:27:37;2.50;99.90
9881;DHT22;4979;51.014;6.678;2022-12-10T14:30:19;2.40;99.90
9881;DHT22;4979;51.014;6.678;2022-12-10T14:32:46;2.40;99.90
9881;DHT22;4979;51.014;6.678;2022-12-10T14:35:24;2.40;99.90
9881;DHT22;4979;51.014;6.678;2022-12-10T14:37:51;2.30;99.90
9881;DHT22;4979;51.014;6.678;2022-12-10T14:40:23;2.40;99.90
9881;DHT22;4979;51.014;6.678;2022-12-10T14:42:50;2.30;99.90
9881;DHT22;4979;51.014;6.678;2022-12-10T14:45:18;2.30;99.90
9881;DHT22;4979;51.014;6.678;2022-12-10T14:47:44;2.30;99.90
9881;DHT22;4979;51.014;6.678;2022-12-10T14:50:12;2.20;99.90
9881;DHT22;4979;51.014;6.678;2022-12-10T14:52:50;2.20;99.90
9881;DHT22;4979;51.014;6.678;2022-12-10T14:55:19;2.20;99.90
9881;DHT22;4979;51.014;6.678;2022-12-10T14:57:51;2.10;99.90
9881;DHT22;4979;51.014;6.678;2022-12-10T15:00:21;2.20;99.90
9881;DHT22;4979;51.014;6.678;2022-12-10T15:02:55;2.10;99.90
9881;DHT22;4979;51.014;6.678;2022-12-10T15:05:25;2.10;99.90
9881;DHT22;4979;51.014;6.678;2022-12-10T15:07:55;2.00;99.90
9881;DHT22;4979;51.014;6.678;2022-12-10T15:10:34;1.90;99.90
9881;DHT22;4979;51.014;6.678;2022-12-10T15:13:01;2.00;99.90
9881;DHT22;4979;51.014;6.678;2022-12-10T15:15:39;2.00;99.90
9881;DHT22;4979;51.014;6.678;2022-12-10T15:23:25;1.90;99.90
9881;DHT22;4979;51.014;6.678;2022-12-10T15:28:42;2.00;99.90
9881;DHT22;4979;51.014;6.678;2022-12-10T15:31:21;1.90;99.90
9881;DHT22;4979;51.014;6.678;2022-12-10T15:36:31;1.80;99.90
9881;DHT22;4979;51.014;6.678;2022-12-10T15:39:03;1.80;99.90
9881;DHT22;4979;51.014;6.678;2022-12-10T15:44:14;1.90;99.90
9881;DHT22;4979;51.014;6.678;2022-12-10T15:46:49;1.80;99.90
9881;DHT22;4979;51.014;6.678;2022-12-10T15:49:15;1.70;99.90
9881;DHT22;4979;51.014;6.678;2022-12-10T15:51:40;1.80;99.90
9881;DHT22;4979;51.014;6.678;2022-12-10T15:54:36;1.80;99.90
9881;DHT22;4979;51.014;6.678;2022-12-10T15:57:12;1.80;99.90
9881;DHT22;4979;51.014;6.678;2022-12-10T15:59:38;1.80;99.90
9881;DHT22;4979;51.014;6.678;2022-12-10T16:04:56;1.70;99.90
9881;DHT22;4979;51.014;6.678;2022-12-10T16:07:22;1.80;99.90
9881;DHT22;4979;51.014;6.678;2022-12-10T16:09:47;1.80;99.90
9881;DHT22;4979;51.014;6.678;2022-12-10T16:12:14;1.80;99.90
9881;DHT22;4979;51.014;6.678;2022-12-10T16:14:47;1.70;99.90
9881;DHT22;4979;51.014;6.678;2022-12-10T16:17:13;1.90;99.90
9881;DHT22;4979;51.014;6.678;2022-12-10T16:19:39;1.80;99.90
9881;DHT22;4979;51.014;6.678;2022-12-10T16:22:05;1.80;99.90
9881;DHT22;4979;51.014;6.678;2022-12-10T16:24:31;1.70;99.90
9881;DHT22;4979;51.014;6.678;2022-12-10T16:26:57;1.60;99.90
9881;DHT22;4979;51.014;6.678;2022-12-10T16:29:22;1.70;99.90
9881;DHT22;4979;51.014;6.678;2022-12-10T16:31:49;1.70;99.90
9881;DHT22;4979;51.014;6.678;2022-12-10T16:34:14;1.80;99.90
9881;DHT22;4979;51.014;6.678;2022-12-10T16:36:40;1.80;99.90
9881;DHT22;4979;51.014;6.678;2022-12-10T16:39:06;1.80;99.90
9881;DHT22;4979;51.014;6.678;2022-12-10T16:41:32;1.80;99.90
9881;DHT22;4979;51.014;6.678;2022-12-10T16:43:57;1.80;99.90
9881;DHT22;4979;51.014;6.678;2022-12-10T16:46:23;1.90;99.90
9881;DHT22;4979;51.014;6.678;2022-12-10T16:48:49;1.90;99.90
9881;DHT22;4979;51.014;6.678;2022-12-10T16:51:26;1.90;99.90
9881;DHT22;4979;51.014;6.678;2022-12-10T16:53:56;1.90;99.90
9881;DHT22;4979;51.014;6.678;2022-12-10T16:56:22;2.00;99.90
9881;DHT22;4979;51.014;6.678;2022-12-10T16:58:48;2.00;99.90
9881;DHT22;4979;51.014;6.678;2022-12-10T17:01:20;2.00;99.90
9881;DHT22;4979;51.014;6.678;2022-12-10T17:03:46;1.90;99.90
9881;DHT22;4979;51.014;6.678;2022-12-10T17:06:12;1.90;99.90
9881;DHT22;4979;51.014;6.678;2022-12-10T17:08:38;1.80;99.90
9881;DHT22;4979;51.014;6.678;2022-12-10T17:16:51;2.00;99.90
9881;DHT22;4979;51.014;6.678;2022-12-10T17:19:17;1.90;99.90
9881;DHT22;4979;51.014;6.678;2022-12-10T17:21:43;2.00;99.90
9881;DHT22;4979;51.014;6.678;2022-12-10T17:24:08;2.10;99.90
9881;DHT22;4979;51.014;6.678;2022-12-10T17:26:37;2.10;99.90
9881;DHT22;4979;51.014;6.678;2022-12-10T17:29:11;2.00;99.90
9881;DHT22;4979;51.014;6.678;2022-12-10T17:31:38;2.00;99.90
9881;DHT22;4979;51.014;6.678;2022-12-10T17:34:05;2.00;99.90
9881;DHT22;4979;51.014;6.678;2022-12-10T17:36:31;2.00;99.90
9881;DHT22;4979;51.014;6.678;2022-12-10T17:38:56;1.90;99.90
9881;DHT22;4979;51.014;6.678;2022-12-10T17:41:22;1.90;99.90
9881;DHT22;4979;51.014;6.678;2022-12-10T17:43:47;1.80;99.90
9881;DHT22;4979;51.014;6.678;2022-12-10T17:46:17;1.80;99.90
9881;DHT22;4979;51.014;6.678;2022-12-10T17:48:44;1.80;99.90
9881;DHT22;4979;51.014;6.678;2022-12-10T17:51:12;1.60;99.90
9881;DHT22;4979;51.014;6.678;2022-12-10T17:53:38;1.70;99.90
9881;DHT22;4979;51.014;6.678;2022-12-10T17:56:15;1.80;99.90
9881;DHT22;4979;51.014;6.678;2022-12-10T17:58:42;1.80;99.90
9881;DHT22;4979;51.014;6.678;2022-12-10T18:01:08;1.90;99.90
9881;DHT22;4979;51.014;6.678;2022-12-10T18:03:35;2.00;99.90
9881;DHT22;4979;51.014;6.678;2022-12-10T18:06:02;2.00;99.90
9881;DHT22;4979;51.014;6.678;2022-12-10T18:08:27;2.00;99.90
9881;DHT22;4979;51.014;6.678;2022-12-10T18:10:53;2.10;99.90
9881;DHT22;4979;51.014;6.678;2022-12-10T18:13:19;2.10;99.90
9881;DHT22;4979;51.014;6.678;2022-12-10T18:15:47;2.10;99.90
9881;DHT22;4979;51.014;6.678;2022-12-10T18:18:14;2.10;99.90
9881;DHT22;4979;51.014;6.678;2022-12-10T18:20:40;2.20;99.90
9881;DHT22;4979;51.014;6.678;2022-12-10T18:23:07;2.20;99.90
9881;DHT22;4979;51.014;6.678;2022-12-10T18:25:35;2.20;99.90
9881;DHT22;4979;51.014;6.678;2022-12-10T18:30:45;2.00;99.90
9881;DHT22;4979;51.014;6.678;2022-12-10T18:33:13;1.90;99.90